Accueil
METAR-TAF:

METAR-TAF

Aéroports :

Aéroport de l'île de Kish

Kish, Iran

latitude: 26-31-36N, longitude: 053-58-54E, altitude: 30 m

Observation

Le bulletin a été fait il y a 1 heure et 2 minutes, à 16:00 UTC
Vent 6 kt de ouest/nord-ouest
Température 32°C
Humidité 67%
Pression 1003 hPa
Visibilité: 7000 m

METAR: OIBK 231600Z 29006KT 7000 NSC 32/25 Q1003

Heure: 20:32 (17:02 UTC)

Prévision

Le bulletin a été fait il y a 5 heures et 52 minutes, à 11:10 UTC
Prévision valable du 23 à 12 UTC au 24 à 18 UTC
Vent 8 kt de ouest
Visibilité: 6000 m
Temporairement
du 24 à 00 UTC au 24 à 06 UTC
Visibilité: 4000 m
Temporairement
du 24 à 06 UTC au 24 à 10 UTC
Vent 10 kt de est/sud-est

TAF: OIBK 231110Z 2312/2418 26008KT 6000 NSC TEMPO 2400/2406 4000 HZ/BR TEMPO 2406/2410 12010KT

Observations et prévisions météorologiques de plus de 4000 aéroports (messages METAR et TAF).

Les stations disponibles sont représentées par des disques jaunes et rouges sur la carte.

Passer la souris dessus pour voir le nom de la station.

Cliquer dessus pour voir les observations et prévisions météorologiques.

Pour changer de carte: cliquez sur les boutons verts avec une croix noire pour zoomer, sur le bouton vert avec un tiret pour effectuer un zoom arrière, ou sur les flèches vertes pour les cartes adjacentes.


METAR-TAF: